Frederick, MD (21701)

4:00 AM EST on December 21, 2014 (GMT -0500)
MDDOT I-70 at Monacacy | Change Station
CLOSE
Current Station
Personal Weather Station
Location: Frederick, MD
Elevation: 319 ft
Nearby Weather Stations

Elev 319 ft 39.40 °N, 77.36 °W | Updated 614 days ago

Mostly Cloudy
Mostly Cloudy
28 °F
Feels Like 28 °F
N
0
Wind Variable Wind from West
Gusts 1 mph

Today
High -- | Low -- °F
--% Chance of Precip.
Yesterday
High -- | Low -- °F
Precip. -- in
7:25 AM 4:49 PM
Waning Crescent, 1% visible
Pressure 30.34 in
Visibility 10.0 miles
Clouds Mostly Cloudy 4300 ft
Overcast 7000 ft
Dew Point 19 °F
Humidity 70%
Rainfall -999.00 in
Snow Depth Not available.
UV 0 out of 12
Pollen .10 out of 12
Air Quality Not available.
Flu Activity Not available.
METAR KFDK 210835Z AUTO 00000KT 10SM BKN043 OVC070 00/M04 A3034 RMK AO2

More Conditions Fewer Conditions

Pressure 30.34 in
Visibility 10.0 miles
Clouds Mostly Cloudy 4300 ft
Overcast 7000 ft
Dew Point 19 °F
Humidity 70%
Rainfall -999.00 in
Snow Depth Not available.
UV 0 out of 12
Pollen .10 out of 12
Air Quality Not available.
Flu Activity Not available.
METAR KFDK 210835Z AUTO 00000KT 10SM BKN043 OVC070 00/M04 A3034 RMK AO2

More Conditions Fewer Conditions

10-Day Weather Forecast

Almanac

Astronomy

Dec. 21, 2014 Rise Set
Actual Time
Civil Twilight
Nautical Twilight
Astronomical Twilight
Moon
Length of Visible Light
Length of Day
Tomorrow will be .
, % of the Moon is Illuminated

Today's Extremes

State Highs State Lows

Community

WunderPhotos

Upload Photos

1,779,364 photos uploaded!

WunderBlogs® & News

Nearby

Air Quality

  Air Quality AQ Index Pollutant
Not available.

Snow Depth

Station Depth Elevation

Earthquake Activity

City Distance Mag. Time & Date
Minimum magnitude displayed is 2.5.

Coastal Water Temperatures

Place Temperature

Nearby Weather Stations